Pagrindinis puslapis
METAR-TAF:

METAR-TAF

Oro uostai :

Shageluk, Aliaska, Jungtinės Amerikos Valstijos

platuma: 62-41-32N, ilguma: 159-34-09W, Aukštis: 24 m

Dabartinis oras

Ataskaita buvo paskelbta 44 minutes, ne 17:56 UTC
Vėjas 11 kt iš Šiaurės Rytų
Temperatūra -21°C
Drėgmė 77%
Slėgis 1013 hPa
Matomumas: 6.4 km
Su prošvaistėmis ne aukštis 2300 ft
Apsiniaukę ne aukštis 3600 ft
migla

METAR: PAHX 161756Z AUTO 04011KT 4SM HZ BKN023 OVC036 M21/M24 A2991 RMK AO2 SLP130 T12061239 11206 21211 51002 PWINO FZRANO

Laikas: 09:40 (18:40 UTC)


TAF: trūkstamas

Orai ataskaitas ir orų prognozės (METAR, TAF).

turimą stotys yra geltonos ir raudonos taškus žemėlapyje.

Perkelti pele per norėdami pamatyti stoties vardą.

Tada spustelėkite, norėdami matyti oro stebėjimo ir prognozės.

Norėdami pakeisti žemėlapį: spustelėkite ant žalios mygtukų su juodo kryžiaus žemyn,; žalią mygtuką su brūkšneliu, jei norite nutolinti; arba žalių rodyklių gretimoms žemėlapius.


METAR-TAF: